Jefferson, NC

10:04 AM EDT on May 21, 2018 (GMT -0400)
Ashe County

Weather History for KGEV - April, 2013

Change the Weather History Date:

Thursday, April 11, 2013

  Actual Average Record
Temperature  
Mean Temperature 63 °F -  
Max Temperature 72 °F 61 °F 80 °F (2005)
Min Temperature 54 °F 35 °F 22 °F (1989)
Degree Days  
Heating Degree Days 2    
Growing Degree Days 13 (Base 50)    
Moisture  
Dew Point 50 °F    
Average Humidity 61    
Maximum Humidity 93    
Minimum Humidity 40    
Precipitation  
Precipitation 0.17 in - - ()
Sea Level Pressure  
Sea Level Pressure 29.93 in    
Wind  
Wind Speed 3 mph (SSE)    
Max Wind Speed 12 mph    
Max Gust Speed 24 mph    
Visibility 10 miles    
Events Rain    
Averages and records for this station are not official NWS values.
T = Trace of Precipitation, MM = Missing Value Source: NWS Daily Summary

Daily Weather History Graph

Daily Weather History Graph

Search for Another Location

Airport or City:

Astronomy

Apr. 11, 2013 Rise Set
Actual Time 6:57 AM EDT 7:56 PM EDT
Civil Twilight 6:30 AM EDT 8:23 PM EDT
Nautical Twilight 5:59 AM EDT 8:54 PM EDT
Astronomical Twilight 5:27 AM EDT 9:26 PM EDT
Moon 7:30 AM EDT (4/11) 9:26 PM EDT (4/11)
Length of Visible Light 13h 52m
Length of Day
12h 59m
New Moon, 2% of the Moon is Illuminated
Apr 11
New Moon
Apr 18
First Quarter
Apr 25
Full
May 2
Last Quarter
May 9
New

Hourly Weather History & Observations

Time (EDT) Temp. Dew Point Humidity Pressure Visibility Wind Dir Wind Speed Gust Speed Precip Events Conditions
12:15 AM 65.3 °F 48.9 °F 55% 30.04 in 10.0 mi Calm Calm - N/A   Clear
12:35 AM 64.8 °F 48.7 °F 56% 30.04 in 10.0 mi Calm Calm - N/A   Clear
1:15 AM 63.9 °F 49.5 °F 59% 30.04 in 10.0 mi Calm Calm - N/A   Clear
1:35 AM 63.0 °F 49.8 °F 62% 30.04 in 10.0 mi Calm Calm - N/A   Clear
1:55 AM 62.8 °F 50.0 °F 63% 30.03 in 10.0 mi Calm Calm - N/A   Clear
2:15 AM 62.4 °F 50.0 °F 64% 30.02 in 10.0 mi Calm Calm - N/A   Clear
2:35 AM 61.5 °F 50.0 °F 66% 30.02 in 10.0 mi Calm Calm - N/A   Clear
2:55 AM 61.3 °F 49.8 °F 66% 30.01 in 10.0 mi Calm Calm - N/A   Clear
3:15 AM 61.2 °F 50.0 °F 67% 30.01 in 10.0 mi Calm Calm - N/A   Clear
3:35 AM 59.4 °F 49.8 °F 71% 29.99 in 10.0 mi Calm Calm - N/A   Clear
3:55 AM 59.2 °F 49.8 °F 71% 29.99 in 10.0 mi Calm Calm - N/A   Clear
4:15 AM 56.3 °F 49.6 °F 78% 29.98 in 10.0 mi SSE 3.5 mph - N/A   Clear
4:35 AM 55.8 °F 49.6 °F 80% 29.98 in 10.0 mi Calm Calm - N/A   Clear
4:55 AM 55.6 °F 49.1 °F 79% 29.98 in 10.0 mi SSE 4.6 mph - N/A   Clear
5:15 AM 54.5 °F 49.1 °F 82% 29.98 in 10.0 mi SSE 4.6 mph - N/A   Clear
5:35 AM 56.1 °F 49.1 °F 77% 29.97 in 10.0 mi SE 3.5 mph - N/A   Clear
5:55 AM 57.0 °F 49.3 °F 75% 29.98 in 10.0 mi Calm Calm - N/A   Clear
6:15 AM 57.0 °F 49.3 °F 75% 29.98 in 10.0 mi East 3.5 mph - N/A   Clear
6:35 AM 56.7 °F 49.5 °F 77% 29.98 in 10.0 mi SE 3.5 mph - N/A   Clear
7:15 AM 56.3 °F 49.1 °F 77% 29.99 in 10.0 mi Calm Calm - N/A   Clear
7:35 AM 57.0 °F 48.7 °F 74% 30.00 in 10.0 mi Calm Calm - N/A   Clear
7:55 AM 57.4 °F 49.1 °F 74% 30.00 in 10.0 mi Calm Calm - N/A   Clear
8:15 AM 57.6 °F 49.1 °F 73% 30.00 in 10.0 mi Calm Calm - N/A   Clear
8:35 AM 58.5 °F 49.3 °F 72% 30.01 in 10.0 mi Calm Calm - N/A   Clear
8:55 AM 59.2 °F 50.4 °F 73% 30.01 in 10.0 mi Calm Calm - N/A   Clear
9:15 AM 60.3 °F 49.8 °F 68% 30.01 in 10.0 mi East 4.6 mph - N/A   Clear
9:35 AM 61.3 °F 50.4 °F 67% 30.00 in 10.0 mi ESE 5.8 mph - N/A   Clear
9:55 AM 62.6 °F 50.2 °F 64% 30.00 in 10.0 mi East 4.6 mph - N/A   Clear
10:15 AM 66.4 °F 48.0 °F 52% 29.99 in 10.0 mi SSE 5.8 mph - N/A   Clear
10:35 AM 68.7 °F 45.9 °F 44% 29.98 in 10.0 mi South 8.1 mph - N/A   Clear
10:55 AM 69.4 °F 45.3 °F 42% 29.98 in 10.0 mi SSE 6.9 mph - N/A   Clear
11:15 AM 70.2 °F 44.4 °F 40% 29.98 in 10.0 mi SSE 8.1 mph - N/A   Clear
11:35 AM 69.6 °F 46.2 °F 43% 29.98 in 10.0 mi SSE 8.1 mph - N/A   Clear
11:55 AM 67.5 °F 47.7 °F 49% 29.98 in 10.0 mi SSE 6.9 mph - N/A   Clear
12:15 PM 68.7 °F 48.0 °F 48% 29.97 in 10.0 mi SSE 4.6 mph - N/A   Clear
12:35 PM 70.9 °F 49.6 °F 47% 29.97 in 10.0 mi SSE 8.1 mph - N/A   Clear
12:55 PM 70.0 °F 46.9 °F 44% 29.96 in 10.0 mi South 10.4 mph 16.1 mph N/A   Clear
1:15 PM 70.7 °F 47.5 °F 44% 29.96 in 10.0 mi SSE 6.9 mph 17.3 mph N/A   Clear
1:35 PM 69.3 °F 47.1 °F 45% 29.95 in 10.0 mi SSE 4.6 mph - N/A   Clear
1:55 PM 69.4 °F 47.7 °F 46% 29.94 in 10.0 mi SSE 8.1 mph 16.1 mph N/A   Clear
2:15 PM 70.3 °F 48.0 °F 45% 29.93 in 10.0 mi South 11.5 mph 18.4 mph N/A   Clear
2:35 PM 71.6 °F 48.7 °F 44% 29.93 in 10.0 mi SE 5.8 mph 16.1 mph N/A   Scattered Clouds
2:55 PM 72.7 °F 48.0 °F 42% 29.91 in 10.0 mi South 8.1 mph 17.3 mph N/A   Scattered Clouds
3:15 PM 72.1 °F 46.6 °F 40% 29.90 in 10.0 mi South 6.9 mph 20.7 mph N/A   Scattered Clouds
3:35 PM 71.6 °F 46.6 °F 41% 29.90 in 10.0 mi SSE 6.9 mph 18.4 mph N/A   Mostly Cloudy
3:55 PM 72.3 °F 46.6 °F 40% 29.89 in 10.0 mi SSE 6.9 mph 18.4 mph N/A   Mostly Cloudy
4:15 PM 70.2 °F 45.7 °F 41% 29.88 in 10.0 mi SSE 9.2 mph 19.6 mph N/A   Scattered Clouds
4:35 PM 70.3 °F 45.9 °F 41% 29.87 in 10.0 mi SSE 8.1 mph 24.2 mph N/A   Scattered Clouds
4:55 PM 70.0 °F 45.7 °F 42% 29.86 in 10.0 mi South 9.2 mph 16.1 mph N/A   Mostly Cloudy
5:15 PM 70.2 °F 46.0 °F 42% 29.86 in 10.0 mi SSE 4.6 mph 17.3 mph N/A   Mostly Cloudy
5:35 PM 69.6 °F 46.9 °F 44% 29.86 in 10.0 mi South 4.6 mph - N/A   Scattered Clouds
5:55 PM 68.9 °F 47.1 °F 46% 29.86 in 10.0 mi SSE 6.9 mph 18.4 mph N/A   Clear
6:15 PM 69.4 °F 47.1 °F 45% 29.86 in 10.0 mi SSE 5.8 mph - N/A   Mostly Cloudy
6:35 PM 68.2 °F 46.9 °F 47% 29.86 in 10.0 mi SSE 4.6 mph - N/A   Overcast
6:55 PM 68.0 °F 47.3 °F 47% 29.86 in 10.0 mi SSE 6.9 mph - N/A   Overcast
7:15 PM 67.5 °F 48.0 °F 50% 29.86 in 10.0 mi SSE 5.8 mph - N/A   Overcast
7:35 PM 66.7 °F 48.6 °F 52% 29.85 in 10.0 mi SSE 3.5 mph - N/A   Mostly Cloudy
7:55 PM 66.2 °F 48.7 °F 53% 29.84 in 10.0 mi SSE 6.9 mph - N/A   Overcast
8:15 PM 66.2 °F 49.1 °F 54% 29.84 in 10.0 mi SSE 4.6 mph - N/A   Overcast
8:35 PM 65.8 °F 50.7 °F 58% 29.84 in 10.0 mi SE 6.9 mph - N/A   Overcast
8:55 PM 64.4 °F 53.8 °F 68% 29.84 in 10.0 mi SE 5.8 mph - N/A Rain Light Rain
9:15 PM 61.9 °F 55.6 °F 80% 29.83 in 10.0 mi Calm Calm - N/A Rain Rain
9:35 PM 61.7 °F 55.8 °F 81% 29.82 in 10.0 mi SSE 5.8 mph - N/A   Overcast
9:55 PM 61.3 °F 56.7 °F 85% 29.82 in 10.0 mi SSE 3.5 mph - N/A Rain Light Rain
10:15 PM 60.8 °F 57.4 °F 88% 29.82 in 10.0 mi SSE 3.5 mph - 0.02 in Rain Light Rain
10:35 PM 60.4 °F 57.7 °F 91% 29.81 in 3.0 mi SSE 5.8 mph - 0.07 in Rain Light Rain
10:55 PM 60.8 °F 57.9 °F 90% 29.80 in 7.0 mi SSE 5.8 mph - 0.07 in Rain Light Rain
11:15 PM 60.8 °F 58.1 °F 91% 29.80 in 4.0 mi SSE 4.6 mph - 0.03 in Rain Rain
11:35 PM 60.8 °F 58.3 °F 91% 29.79 in 5.0 mi SSE 6.9 mph - 0.04 in Rain Rain
11:55 PM 60.3 °F 58.1 °F 93% 29.78 in 2.5 mi SE 5.8 mph 17.3 mph 0.10 in Rain Heavy Rain